Franklinton, Louisiana
Current Conditions -  °F | °C
As of 8:35 AM on Sunday 23 Nov 2014 (Local Time) from KHDC Reporting Station
Drizzle Drizzle  
Wind Chill: 64°   Ceiling: 4800
Heat Index: 64°   Visibility: 10mi
Dew Point: 63°   Wind: 10mph
Humidity: 94%   Direction: 140°SE
Pressure: 29.65"   Gusts: NA
Location:  30.85°N, 90.15°W
Report Text: KHDC 231435Z AUTO 14009KT 10SM -DZ SCT010 BKN048 OVC090 18/17 A2965 RMK AO2 P0002
Loading
Personal Weather Stations






























Interactive Weather Map New forecast layout! Learn more

10-Day Weather Forecast

Advertisements
Track Severe Weather on mobile